logo
Search for airport 
image banner adimage banner adimage banner ad
image banner ad

FANY - Nylstroom

Located in Nylstroom, South Africa

ICAO - FANY, IATA -

Data provided by Airmate  

General information

Coordinates: S24°41'8" E28°25'41"
Elevation is 3900 feet MSL.
 
View others Airports in Limpopo

Operational data

Special qualification required
Current time UTC:
Current local time:
Weather at : - ( 0 km )
METAR: LWSK 140450Z VRB02KT CAVOK 10/08 Q1026 NOSIG
View NOTAMs / SUP AIP / TFR affecting this airport [VIEW]
Communications frequencies: [VIEW]

Runways:

RWY identifierQFULength (ft)Width (ft)SurfaceLDA (ft)
1085°397056ASP
28265°397056ASP

Airport contact information

Address: Nylstroom South Africa

Non aviation service providers

Touristic activity

Adventures with Elephants

Adventures with Elephants

Satellite view of FANY